Monterrey, México

5:13 AM CDT en Septiembre 22, 2014 (GMT -0500)
PrepaUDEM Fundadores | Change Station
CLOSE
Current Station
Estación meteorológica personal
Location: Escobedo, NUEVO LEON
Altura: 1630 ft
Estaciones meteorológicas cercanas

Alt 1630 ft 25.77 °N, 100.30 °W | Updated 31 seconds ago

Light Rain
Lluvia débil
72.1 ° F
Sensación térmica 72.1 ° F
N
1.0
Viento Variable Viento desde Norte
Gusts 2.0 mph

Hoy
Alta -- | Baja -- ° F
--% Posibilidad de precipitaciones
Ayer
Alta -- | Baja -- ° F
Precip. -- pul
7:29 AM 7:37 PM
Creciente menguante, 3% visible
Presión 30.02 pul
Visibilidad 5.0 Millas
Nubes Muy nublado 500 ft
Nublado 1000 ft
Punto de rocío 70 ° F
Humedad 94%
Precipitaciones 1.23 pul
Espesor de la nieve No disponible.
UV 0 de una escala de 12
Polen No disponible.
Calidad del aire No disponible.
Flu Activity No disponible.
METAR MMMY 220940Z 32004KT 5SM -RA BKN005 OVC010 23/22 A3002 RMK 8/5// -RAB35 BR HZ

More Conditions Fewer Conditions

Presión 30.02 pul
Visibilidad 5.0 Millas
Nubes Muy nublado 500 ft
Nublado 1000 ft
Punto de rocío 70 ° F
Humedad 94%
Precipitaciones 1.23 pul
Espesor de la nieve No disponible.
UV 0 de una escala de 12
Polen No disponible.
Calidad del aire No disponible.
Flu Activity No disponible.
METAR MMMY 220940Z 32004KT 5SM -RA BKN005 OVC010 23/22 A3002 RMK 8/5// -RAB35 BR HZ

More Conditions Fewer Conditions

10-Day Weather Forecast

Almanac

Astronomía

Sep. 22, 2014 Salida Puesta
Hora real 7:29 AM CDT 7:37 PM CDT
Crepúsculo civil 7:06 AM CDT 8:00 PM CDT
Crepúsculo náutico 6:40 AM CDT 8:27 PM CDT
Crepúsculo astronómico 6:13 AM CDT 8:54 PM CDT
Luna 6:06 AM CDT 6:42 PM CDT
Horas de luz 12h 53m
Horas de luz
12h 07m
Tomorrow will be 1m 30s shorter.
Creciente menguante, 3% of the Moon is Illuminated
Hoy
Creciente menguante
Sep 24
Nueva
Oct 1
Cuarto creciente
Oct 8
Luna llena
Oct 15
Cuarto menguante

Extremos de ayer

Máximos del país Bajas del país

Community

WunderPhotos

Upload Photos

1,755,404 ¡fotos cargadas!

Nearby

Calidad del aire

Not available.

Grosos de nieve

Not available.

Actividad de terremotos

Ciudad Distance Mag. Tiempo y dato
No hay informes recientes de la actividad sísmica.
Magnitud mínima muestra es 2,5.

Temperaturas de aguas costeras

Lugar Temperatura
Sin partes meteorológicos de las estaciones

Estaciones meteorológicas cercanas